Mountain Home, AR (72654)

6:07 AM CDT on August 05, 2015 (GMT -0500)
Tank Rea Insurance Agency, Inc. | | Change Station
CLOSE
Current Station
Personal Weather Station
Location: Mountain Home, AR
Elevation: 797 ft
Nearby Weather Stations

Elev 797 ft 36.33 °N, 92.38 °W | Updated 13 seconds ago

Overcast
Overcast
72.4 °F
Feels Like 70 °F
N
0.0
Wind Variable Wind from NNW
Gusts 0.0 mph

Today
High -- | Low -- °F
--% Chance of Precip.
Yesterday
High -- | Low -- °F
Precip. -- in
6:19 AM 8:11 PM
Waning Gibbous, 68% visible
Pressure 29.94 in
Visibility 7.0 miles
Clouds Mostly Cloudy 7500 ft
Overcast 9000 ft
Heat Index 70 °F
Dew Point Not available.
Humidity Not available.
Rainfall 0.00 in
Snow Depth Not available.
UV 0 out of 12
Pollen 6.50 out of 12
Air Quality Not available.
Flu Activity Not available.
METAR KBPK 051053Z AUTO 12003KT 7SM BKN075 OVC090 21/21 A2997 RMK AO2 LTG DSNT E SLP136 T02110206 PNO $

More Conditions Fewer Conditions

Pressure 29.94 in
Visibility 7.0 miles
Clouds Mostly Cloudy 7500 ft
Overcast 9000 ft
Heat Index 70 °F
Dew Point Not available.
Humidity Not available.
Rainfall 0.00 in
Snow Depth Not available.
UV 0 out of 12
Pollen 6.50 out of 12
Air Quality Not available.
Flu Activity Not available.
METAR KBPK 051053Z AUTO 12003KT 7SM BKN075 OVC090 21/21 A2997 RMK AO2 LTG DSNT E SLP136 T02110206 PNO $

More Conditions Fewer Conditions

10-Day Weather Forecast

×

Almanac

Astronomy

Aug. 05, 2015 Rise Set
Actual Time
Civil Twilight
Nautical Twilight
Astronomical Twilight
Moon
Length of Visible Light
Length of Day
Tomorrow will be .
, % of the Moon is Illuminated

Today's Extremes

State Highs State Lows

Community

WunderPhotos

Upload Photos

1,844,125 photos uploaded!

WunderBlogs® & News

Nearby

Air Quality

  Air Quality AQ Index Pollutant
Not available.

Snow Depth

Station Depth Elevation

Earthquake Activity

City Distance Mag. Time & Date
Minimum magnitude displayed is 2.5.

Coastal Water Temperatures

Place Temperature

Stations

Nearby Weather Stations

Station Location Temp. Windchill Dew Point Humidity Wind Precip. Elev Updated Type